AUA614 LOWW-LOWI
Flight info
| Callsign | AUA614 |
|---|---|
| Flight time | N/A |
| Altitude | 30000 |
| Route | SOVIL DCT SITNI DCT BAGSI DCT NANIT NANIT2A |
| Aircraft | A320/M-SDE3FGHIRWY/LB1 |
Departure
| Time | 2026-05-07 18:35 |
|---|---|
| Airport | Vienna International Airport (LOWW) |
Arrival
| Time | N/A |
|---|---|
| Airport | Innsbruck Airport (LOWI) |
| Time | Latitude | Longitude | Altitude | Speed | Heading |
|---|---|---|---|---|---|
| 2026-05-07 17:53 | 48.11744 | 16.56682 | 610 ft | 0 kts | 25° |
| 2026-05-07 18:25 | 48.11733 | 16.56674 | 609 ft | 4 kts | 26° |
| 2026-05-07 18:25 | 48.11709 | 16.56655 | 609 ft | 4 kts | 31° |
| 2026-05-07 18:25 | 48.11688 | 16.56632 | 609 ft | 4 kts | 52° |
| 2026-05-07 18:26 | 48.11681 | 16.56605 | 609 ft | 2 kts | 115° |
| 2026-05-07 18:26 | 48.11682 | 16.56603 | 609 ft | 0 kts | 116° |
| 2026-05-07 18:30 | 48.11681 | 16.56603 | 609 ft | 1 kts | 116° |
| 2026-05-07 18:30 | 48.11670 | 16.56640 | 609 ft | 7 kts | 116° |
| 2026-05-07 18:31 | 48.11639 | 16.56735 | 609 ft | 13 kts | 116° |
| 2026-05-07 18:31 | 48.11599 | 16.56856 | 609 ft | 12 kts | 116° |
| 2026-05-07 18:31 | 48.11559 | 16.56982 | 609 ft | 16 kts | 115° |
| 2026-05-07 18:31 | 48.11502 | 16.57157 | 609 ft | 19 kts | 116° |
| 2026-05-07 18:32 | 48.11445 | 16.57331 | 609 ft | 17 kts | 115° |
| 2026-05-07 18:32 | 48.11365 | 16.57368 | 609 ft | 14 kts | 205° |
| 2026-05-07 18:32 | 48.11275 | 16.57300 | 609 ft | 15 kts | 209° |
| 2026-05-07 18:32 | 48.11205 | 16.57290 | 609 ft | 9 kts | 130° |
| 2026-05-07 18:33 | 48.11181 | 16.57362 | 609 ft | 8 kts | 115° |
| 2026-05-07 18:33 | 48.11144 | 16.57474 | 609 ft | 14 kts | 115° |
| 2026-05-07 18:33 | 48.11066 | 16.57518 | 609 ft | 8 kts | 203° |
| 2026-05-07 18:33 | 48.11064 | 16.57517 | 609 ft | 0 kts | 204° |
| 2026-05-07 18:34 | 48.11051 | 16.57508 | 609 ft | 7 kts | 204° |
| 2026-05-07 18:34 | 48.10972 | 16.57440 | 609 ft | 17 kts | 233° |
| 2026-05-07 18:34 | 48.10980 | 16.57329 | 609 ft | 0 kts | 294° |
| 2026-05-07 18:34 | 48.11075 | 16.57039 | 609 ft | 76 kts | 296° |
| 2026-05-07 18:35 | 48.11431 | 16.55949 | 609 ft | 154 kts | 296° |
| 2026-05-07 18:35 | 48.11968 | 16.54311 | 1031 ft | 183 kts | 296° |
| 2026-05-07 18:35 | 48.12326 | 16.52509 | 2037 ft | 180 kts | 272° |
| 2026-05-07 18:35 | 48.12083 | 16.50709 | 2873 ft | 183 kts | 244° |
| 2026-05-07 18:36 | 48.11420 | 16.48948 | 3361 ft | 206 kts | 237° |
| 2026-05-07 18:36 | 48.10616 | 16.47076 | 3820 ft | 228 kts | 237° |
| 2026-05-07 18:36 | 48.09697 | 16.44986 | 4306 ft | 253 kts | 232° |
| 2026-05-07 18:36 | 48.08637 | 16.42747 | 4789 ft | 270 kts | 243° |
| 2026-05-07 18:37 | 48.08154 | 16.40031 | 5010 ft | 273 kts | 266° |
| 2026-05-07 18:37 | 48.08070 | 16.37162 | 5539 ft | 278 kts | 267° |
| 2026-05-07 18:37 | 48.07994 | 16.34277 | 6467 ft | 279 kts | 267° |
| 2026-05-07 18:37 | 48.07915 | 16.31363 | 7284 ft | 282 kts | 267° |
| 2026-05-07 18:38 | 48.07831 | 16.28414 | 8059 ft | 286 kts | 267° |
| 2026-05-07 18:38 | 48.07771 | 16.26402 | 8566 ft | 288 kts | 267° |
| 2026-05-07 18:38 | 48.07677 | 16.23386 | 9293 ft | 292 kts | 267° |
| 2026-05-07 18:38 | 48.07578 | 16.20376 | 9984 ft | 296 kts | 266° |
| 2026-05-07 18:39 | 48.07473 | 16.17187 | 10333 ft | 314 kts | 267° |
| 2026-05-07 18:39 | 48.07364 | 16.13859 | 10467 ft | 336 kts | 267° |
| 2026-05-07 18:39 | 48.07248 | 16.10271 | 10668 ft | 353 kts | 267° |
| 2026-05-07 18:39 | 48.07125 | 16.06519 | 11164 ft | 360 kts | 267° |
| 2026-05-07 18:40 | 48.07003 | 16.02813 | 11706 ft | 364 kts | 267° |
| 2026-05-07 18:40 | 48.06877 | 15.99020 | 12245 ft | 367 kts | 267° |
| 2026-05-07 18:40 | 48.06749 | 15.95191 | 12764 ft | 371 kts | 266° |
| 2026-05-07 18:40 | 48.06616 | 15.91326 | 13267 ft | 374 kts | 266° |
| 2026-05-07 18:41 | 48.06476 | 15.87375 | 13751 ft | 377 kts | 266° |
| 2026-05-07 18:41 | 48.06334 | 15.83450 | 14206 ft | 380 kts | 266° |
| 2026-05-07 18:41 | 48.06195 | 15.79545 | 14642 ft | 383 kts | 266° |
| 2026-05-07 18:41 | 48.06053 | 15.75556 | 15066 ft | 386 kts | 266° |
| 2026-05-07 18:42 | 48.05910 | 15.71538 | 15474 ft | 388 kts | 266° |
| 2026-05-07 18:42 | 48.05765 | 15.67495 | 15865 ft | 391 kts | 266° |
| 2026-05-07 18:42 | 48.05620 | 15.63427 | 16241 ft | 394 kts | 266° |
| 2026-05-07 18:42 | 48.05473 | 15.59330 | 16602 ft | 396 kts | 266° |
| 2026-05-07 18:43 | 48.05322 | 15.55202 | 16949 ft | 399 kts | 266° |
| 2026-05-07 18:43 | 48.05166 | 15.51055 | 17283 ft | 401 kts | 266° |
| 2026-05-07 18:43 | 48.05007 | 15.46884 | 17605 ft | 403 kts | 266° |
| 2026-05-07 18:43 | 48.04840 | 15.42633 | 17923 ft | 406 kts | 266° |
| 2026-05-07 18:44 | 48.04676 | 15.38472 | 18220 ft | 408 kts | 266° |
| 2026-05-07 18:44 | 48.04581 | 15.34229 | 18510 ft | 410 kts | 269° |
| 2026-05-07 18:44 | 48.04604 | 15.29958 | 18793 ft | 412 kts | 271° |
| 2026-05-07 18:44 | 48.04700 | 15.25669 | 19067 ft | 414 kts | 272° |
| 2026-05-07 18:45 | 48.04824 | 15.21358 | 19331 ft | 416 kts | 272° |
| 2026-05-07 18:45 | 48.04942 | 15.17032 | 19588 ft | 418 kts | 272° |
| 2026-05-07 18:45 | 48.05043 | 15.12679 | 19832 ft | 420 kts | 271° |
| 2026-05-07 18:45 | 48.05124 | 15.08309 | 20068 ft | 422 kts | 271° |
| 2026-05-07 18:46 | 48.05187 | 15.03919 | 20298 ft | 423 kts | 271° |
| 2026-05-07 18:46 | 48.05240 | 14.99514 | 20520 ft | 425 kts | 271° |
| 2026-05-07 18:46 | 48.05290 | 14.95088 | 20729 ft | 426 kts | 270° |
| 2026-05-07 18:46 | 48.05338 | 14.90651 | 20928 ft | 428 kts | 270° |
| 2026-05-07 18:47 | 48.05387 | 14.86195 | 21133 ft | 430 kts | 270° |
| 2026-05-07 18:47 | 48.05437 | 14.81723 | 21335 ft | 431 kts | 270° |
| 2026-05-07 18:47 | 48.05484 | 14.77235 | 21525 ft | 433 kts | 270° |
| 2026-05-07 18:47 | 48.05528 | 14.72736 | 21694 ft | 434 kts | 270° |
| 2026-05-07 18:48 | 48.05565 | 14.68218 | 21848 ft | 435 kts | 270° |
| 2026-05-07 18:48 | 48.05596 | 14.63719 | 21995 ft | 436 kts | 270° |
| 2026-05-07 18:48 | 48.05622 | 14.59154 | 22140 ft | 437 kts | 270° |
| 2026-05-07 18:48 | 48.05650 | 14.54609 | 22273 ft | 438 kts | 270° |
| 2026-05-07 18:49 | 48.05677 | 14.50044 | 22400 ft | 439 kts | 270° |
| 2026-05-07 18:49 | 48.05702 | 14.45481 | 22525 ft | 440 kts | 270° |
| 2026-05-07 18:49 | 48.05723 | 14.40900 | 22650 ft | 441 kts | 270° |
| 2026-05-07 18:49 | 48.05746 | 14.36319 | 22775 ft | 441 kts | 270° |
| 2026-05-07 18:50 | 48.05633 | 14.31739 | 22895 ft | 442 kts | 262° |
| 2026-05-07 18:50 | 48.04992 | 14.27259 | 23020 ft | 441 kts | 252° |
| 2026-05-07 18:50 | 48.03823 | 14.23024 | 23147 ft | 441 kts | 243° |
| 2026-05-07 18:50 | 48.02455 | 14.18914 | 23273 ft | 442 kts | 243° |
| 2026-05-07 18:51 | 48.01091 | 14.14804 | 23398 ft | 442 kts | 243° |
| 2026-05-07 18:51 | 47.99729 | 14.10692 | 23523 ft | 442 kts | 243° |
| 2026-05-07 18:51 | 47.98368 | 14.06577 | 23647 ft | 442 kts | 243° |
| 2026-05-07 18:51 | 47.97003 | 14.02464 | 23772 ft | 442 kts | 243° |
| 2026-05-07 18:52 | 47.95638 | 13.98355 | 23897 ft | 442 kts | 243° |
| 2026-05-07 18:52 | 47.94271 | 13.94251 | 24021 ft | 442 kts | 243° |
| 2026-05-07 18:52 | 47.92901 | 13.90148 | 24146 ft | 442 kts | 243° |
| 2026-05-07 18:52 | 47.91545 | 13.86101 | 24269 ft | 442 kts | 243° |
| 2026-05-07 18:53 | 47.90152 | 13.81951 | 24395 ft | 442 kts | 243° |
| 2026-05-07 18:53 | 47.88795 | 13.77908 | 24518 ft | 442 kts | 243° |
| 2026-05-07 18:53 | 47.87422 | 13.73817 | 24643 ft | 442 kts | 243° |
| 2026-05-07 18:53 | 47.86044 | 13.69726 | 24768 ft | 441 kts | 243° |
| 2026-05-07 18:54 | 47.84667 | 13.65650 | 24892 ft | 441 kts | 243° |
| 2026-05-07 18:54 | 47.83286 | 13.61573 | 25017 ft | 440 kts | 243° |
| 2026-05-07 18:54 | 47.81908 | 13.57509 | 25141 ft | 440 kts | 243° |
| 2026-05-07 18:54 | 47.80529 | 13.53449 | 25266 ft | 439 kts | 243° |
| 2026-05-07 18:55 | 47.79151 | 13.49392 | 25391 ft | 439 kts | 243° |
| 2026-05-07 18:55 | 47.77777 | 13.45347 | 25515 ft | 438 kts | 243° |
| 2026-05-07 18:55 | 47.76405 | 13.41307 | 25640 ft | 438 kts | 243° |
| 2026-05-07 18:55 | 47.75032 | 13.37271 | 25764 ft | 437 kts | 243° |
| 2026-05-07 18:56 | 47.73656 | 13.33247 | 25889 ft | 437 kts | 243° |
| 2026-05-07 18:56 | 47.72282 | 13.29232 | 26014 ft | 436 kts | 243° |
| 2026-05-07 18:56 | 47.70906 | 13.25215 | 26138 ft | 436 kts | 243° |
| 2026-05-07 18:56 | 47.69530 | 13.21210 | 26263 ft | 435 kts | 243° |
| 2026-05-07 18:57 | 47.68155 | 13.17215 | 26388 ft | 435 kts | 243° |
| 2026-05-07 18:57 | 47.66778 | 13.13220 | 26512 ft | 434 kts | 243° |
| 2026-05-07 18:57 | 47.65401 | 13.09236 | 26637 ft | 434 kts | 243° |
| 2026-05-07 18:57 | 47.64025 | 13.05257 | 26762 ft | 433 kts | 243° |
| 2026-05-07 18:58 | 47.62652 | 13.01282 | 26887 ft | 433 kts | 243° |
| 2026-05-07 18:58 | 47.61281 | 12.97312 | 27012 ft | 433 kts | 243° |
| 2026-05-07 18:58 | 47.59909 | 12.93345 | 27137 ft | 432 kts | 243° |
| 2026-05-07 18:58 | 47.58538 | 12.89387 | 27261 ft | 432 kts | 243° |
| 2026-05-07 18:59 | 47.57150 | 12.85392 | 26814 ft | 443 kts | 243° |
| 2026-05-07 18:59 | 47.55725 | 12.81307 | 26082 ft | 448 kts | 242° |
| 2026-05-07 18:59 | 47.54287 | 12.77193 | 25356 ft | 452 kts | 242° |
| 2026-05-07 18:59 | 47.52833 | 12.73048 | 24630 ft | 455 kts | 242° |
| 2026-05-07 19:00 | 47.51379 | 12.68907 | 23904 ft | 452 kts | 242° |
| 2026-05-07 19:00 | 47.49942 | 12.64801 | 23179 ft | 447 kts | 242° |
| 2026-05-07 19:00 | 47.48519 | 12.60742 | 22452 ft | 442 kts | 242° |
| 2026-05-07 19:00 | 47.47113 | 12.56740 | 21727 ft | 436 kts | 242° |
| 2026-05-07 19:01 | 47.45727 | 12.52794 | 21001 ft | 430 kts | 242° |
| 2026-05-07 19:01 | 47.44353 | 12.48899 | 20275 ft | 424 kts | 242° |
| 2026-05-07 19:01 | 47.42993 | 12.45062 | 19536 ft | 419 kts | 242° |
| 2026-05-07 19:01 | 47.41661 | 12.41305 | 18728 ft | 407 kts | 242° |
| 2026-05-07 19:02 | 47.40471 | 12.37593 | 17926 ft | 394 kts | 250° |
| 2026-05-07 19:02 | 47.39830 | 12.33732 | 17128 ft | 384 kts | 263° |
| 2026-05-07 19:02 | 47.39769 | 12.29847 | 16326 ft | 375 kts | 275° |
| 2026-05-07 19:02 | 47.40115 | 12.26076 | 15527 ft | 367 kts | 278° |
| 2026-05-07 19:03 | 47.40470 | 12.22382 | 14724 ft | 360 kts | 277° |
| 2026-05-07 19:03 | 47.40813 | 12.18754 | 13922 ft | 354 kts | 277° |
| 2026-05-07 19:03 | 47.41144 | 12.15186 | 13119 ft | 348 kts | 277° |
| 2026-05-07 19:03 | 47.41468 | 12.11678 | 12317 ft | 342 kts | 277° |
| 2026-05-07 19:04 | 47.41786 | 12.08224 | 11514 ft | 337 kts | 277° |
| 2026-05-07 19:04 | 47.42098 | 12.04824 | 10712 ft | 332 kts | 277° |
| 2026-05-07 19:04 | 47.42407 | 12.01476 | 9908 ft | 327 kts | 277° |
| 2026-05-07 19:04 | 47.42688 | 11.98179 | 9251 ft | 317 kts | 272° |
| 2026-05-07 19:05 | 47.42564 | 11.95044 | 9058 ft | 297 kts | 259° |
| 2026-05-07 19:05 | 47.41987 | 11.92162 | 9008 ft | 289 kts | 246° |
| 2026-05-07 19:05 | 47.41044 | 11.89665 | 9012 ft | 271 kts | 234° |
| 2026-05-07 19:05 | 47.39994 | 11.87458 | 9011 ft | 254 kts | 235° |
| 2026-05-07 19:06 | 47.39013 | 11.85383 | 9013 ft | 239 kts | 235° |
| 2026-05-07 19:06 | 47.37315 | 11.81292 | 9395 ft | 235 kts | 248° |
| 2026-05-07 19:06 | 47.36699 | 11.79039 | 9274 ft | 236 kts | 248° |
| 2026-05-07 19:07 | 47.36083 | 11.76804 | 9062 ft | 234 kts | 248° |
| 2026-05-07 19:07 | 47.35468 | 11.74584 | 8837 ft | 233 kts | 247° |
| 2026-05-07 19:07 | 47.34855 | 11.72372 | 8611 ft | 232 kts | 248° |
| 2026-05-07 19:07 | 47.34254 | 11.70202 | 8389 ft | 231 kts | 248° |
| 2026-05-07 19:08 | 47.33641 | 11.67991 | 7997 ft | 235 kts | 247° |
| 2026-05-07 19:08 | 47.33020 | 11.65758 | 7564 ft | 234 kts | 247° |
| 2026-05-07 19:08 | 47.32407 | 11.63559 | 7138 ft | 230 kts | 247° |
| 2026-05-07 19:08 | 47.31806 | 11.61396 | 6751 ft | 224 kts | 247° |
| 2026-05-07 19:09 | 47.31227 | 11.59319 | 6367 ft | 214 kts | 247° |
| 2026-05-07 19:09 | 47.30678 | 11.57357 | 5957 ft | 202 kts | 247° |
| 2026-05-07 19:09 | 47.30151 | 11.55481 | 5551 ft | 193 kts | 247° |
| 2026-05-07 19:09 | 47.29657 | 11.53712 | 5145 ft | 181 kts | 247° |
| 2026-05-07 19:10 | 47.29190 | 11.52044 | 4776 ft | 171 kts | 247° |
| 2026-05-07 19:10 | 47.28746 | 11.50453 | 4372 ft | 165 kts | 247° |
| 2026-05-07 19:10 | 47.28314 | 11.48907 | 3973 ft | 161 kts | 247° |
| 2026-05-07 19:10 | 47.27894 | 11.47392 | 3590 ft | 158 kts | 247° |
| 2026-05-07 19:11 | 47.27479 | 11.45918 | 3241 ft | 153 kts | 247° |
| 2026-05-07 19:11 | 47.27125 | 11.44478 | 2976 ft | 147 kts | 253° |
| 2026-05-07 19:11 | 47.26920 | 11.43014 | 2697 ft | 145 kts | 261° |
| 2026-05-07 19:11 | 47.26800 | 11.41553 | 2550 ft | 143 kts | 263° |
| 2026-05-07 19:12 | 47.26682 | 11.40097 | 2518 ft | 143 kts | 262° |
| 2026-05-07 19:12 | 47.26537 | 11.38509 | 2856 ft | 169 kts | 261° |
| 2026-05-07 19:12 | 47.26356 | 11.36708 | 3295 ft | 186 kts | 262° |
| 2026-05-07 19:12 | 47.26189 | 11.34798 | 3863 ft | 191 kts | 262° |
| 2026-05-07 19:13 | 47.26014 | 11.32758 | 4089 ft | 210 kts | 262° |
| 2026-05-07 19:13 | 47.25828 | 11.30595 | 4571 ft | 215 kts | 262° |
| 2026-05-07 19:13 | 47.25641 | 11.28398 | 5125 ft | 217 kts | 262° |
| 2026-05-07 19:13 | 47.25451 | 11.26185 | 5662 ft | 219 kts | 262° |
| 2026-05-07 19:14 | 47.25291 | 11.23946 | 6175 ft | 222 kts | 270° |
| 2026-05-07 19:14 | 47.25637 | 11.21728 | 6663 ft | 225 kts | 291° |
| 2026-05-07 19:14 | 47.26466 | 11.19769 | 7157 ft | 227 kts | 305° |
| 2026-05-07 19:14 | 47.27310 | 11.17796 | 7646 ft | 229 kts | 298° |
| 2026-05-07 19:15 | 47.28072 | 11.15718 | 8039 ft | 237 kts | 297° |
| 2026-05-07 19:15 | 47.28850 | 11.13508 | 8496 ft | 247 kts | 297° |
| 2026-05-07 19:15 | 47.29648 | 11.11260 | 9201 ft | 249 kts | 297° |
| 2026-05-07 19:15 | 47.30462 | 11.08987 | 9880 ft | 252 kts | 297° |
| 2026-05-07 19:16 | 47.31354 | 11.06733 | 10349 ft | 257 kts | 310° |
| 2026-05-07 19:16 | 47.32633 | 11.04944 | 10922 ft | 247 kts | 308° |
| 2026-05-07 19:16 | 47.33286 | 11.02709 | 11658 ft | 243 kts | 270° |
| 2026-05-07 19:16 | 47.32788 | 11.00313 | 11764 ft | 254 kts | 230° |
| 2026-05-07 19:17 | 47.31323 | 10.98852 | 11632 ft | 265 kts | 195° |
| 2026-05-07 19:17 | 47.29529 | 10.98852 | 11210 ft | 266 kts | 160° |
| 2026-05-07 19:17 | 47.28032 | 11.00410 | 10782 ft | 268 kts | 125° |
| 2026-05-07 19:17 | 47.27416 | 11.03003 | 10350 ft | 270 kts | 89° |
| 2026-05-07 19:18 | 47.27855 | 11.05636 | 9932 ft | 272 kts | 66° |
| 2026-05-07 19:18 | 47.28654 | 11.08166 | 9528 ft | 273 kts | 67° |
| 2026-05-07 19:18 | 47.29196 | 11.10788 | 9258 ft | 267 kts | 85° |
| 2026-05-07 19:18 | 47.29081 | 11.13494 | 8766 ft | 262 kts | 106° |
| 2026-05-07 19:19 | 47.28439 | 11.15946 | 8328 ft | 254 kts | 114° |
| 2026-05-07 19:19 | 47.27745 | 11.18273 | 7822 ft | 242 kts | 114° |
| 2026-05-07 19:19 | 47.27095 | 11.20487 | 7306 ft | 230 kts | 114° |
| 2026-05-07 19:19 | 47.26482 | 11.22589 | 6801 ft | 217 kts | 114° |
| 2026-05-07 19:20 | 47.25921 | 11.24600 | 6172 ft | 207 kts | 110° |
| 2026-05-07 19:20 | 47.25550 | 11.26695 | 4992 ft | 216 kts | 99° |
| 2026-05-07 19:20 | 47.25527 | 11.28856 | 4077 ft | 210 kts | 86° |
| 2026-05-07 19:20 | 47.25685 | 11.31058 | 2787 ft | 220 kts | 82° |
| 2026-05-07 19:21 | 47.25905 | 11.33262 | 1987 ft | 209 kts | 82° |
| 2026-05-07 19:21 | 47.26117 | 11.35168 | 2072 ft | 181 kts | 80° |
| 2026-05-07 19:21 | 47.26389 | 11.37132 | 2306 ft | 212 kts | 75° |
| 2026-05-07 19:21 | 47.26981 | 11.39330 | 2609 ft | 254 kts | 64° |
| 2026-05-07 19:22 | 47.27808 | 11.41855 | 2926 ft | 289 kts | 68° |
| 2026-05-07 19:22 | 47.27669 | 11.44413 | 4572 ft | 223 kts | 143° |
| 2026-05-07 19:22 | 47.26296 | 11.45073 | 5725 ft | 221 kts | 188° |
| 2026-05-07 19:22 | 47.25404 | 11.44116 | 5077 ft | 275 kts | 244° |